Time;durP1;ratioP1;P1;durP2;ratioP2;P2;SDS_P1;SDS_P2;PMS_P1;PMS_P2;Temp;Humidity;BMP_temperature;BMP_pressure;BME280_temperature;BME280_humidity;BME280_pressure;Samples;Min_cycle;Max_cycle;Signal;HPM_P1;HPM_P2
2023/08/12 00:00:10;;;;;;;15.18;10.00;;;;;;;22.50;100.00;101705.38;5059455;28;20407;-74
2023/08/12 00:02:41;;;;;;;14.27;9.30;;;;;;;22.47;100.00;101709.31;5062103;28;20514;-74
2023/08/12 00:05:10;;;;;;;16.00;9.93;;;;;;;22.37;100.00;101710.75;5072803;28;20921;-74
2023/08/12 00:07:38;;;;;;;15.38;9.90;;;;;;;22.38;100.00;101707.03;5083140;28;20040;-74
2023/08/12 00:10:05;;;;;;;12.85;8.55;;;;;;;22.42;100.00;101710.94;5062886;28;20420;-74
2023/08/12 00:12:32;;;;;;;15.18;10.05;;;;;;;22.43;100.00;101704.56;5064576;28;20056;-74
2023/08/12 00:14:59;;;;;;;14.90;9.45;;;;;;;22.44;100.00;101693.69;5083127;28;20076;-74
2023/08/12 00:17:26;;;;;;;16.98;10.30;;;;;;;22.46;100.00;101699.66;5053048;28;20598;-74
2023/08/12 00:19:53;;;;;;;13.93;10.77;;;;;;;22.42;100.00;101695.72;5083579;28;20054;-74
2023/08/12 00:22:19;;;;;;;15.68;9.98;;;;;;;22.43;100.00;101701.91;5070990;28;20051;-74
2023/08/12 00:24:46;;;;;;;19.35;11.15;;;;;;;22.41;100.00;101696.75;5084770;28;20171;-75
2023/08/12 00:27:12;;;;;;;15.52;10.63;;;;;;;22.40;100.00;101700.44;5077783;28;20397;-75
2023/08/12 00:29:39;;;;;;;15.40;10.77;;;;;;;22.37;100.00;101695.53;5062653;28;20489;-74
2023/08/12 00:32:08;;;;;;;13.48;9.57;;;;;;;22.39;100.00;101693.47;5077364;28;20087;-74
2023/08/12 00:34:34;;;;;;;16.20;10.40;;;;;;;22.37;100.00;101687.50;5060904;28;20097;-75
2023/08/12 00:37:01;;;;;;;14.95;9.80;;;;;;;22.35;100.00;101691.41;5082647;28;20637;-75
2023/08/12 00:39:27;;;;;;;16.75;10.43;;;;;;;22.39;100.00;101698.81;5076135;28;20103;-74
2023/08/12 00:41:54;;;;;;;16.45;10.45;;;;;;;22.25;100.00;101697.97;5064151;28;20093;-74
2023/08/12 00:44:20;;;;;;;16.05;10.73;;;;;;;22.18;100.00;101688.25;5076187;28;20044;-74
2023/08/12 00:46:48;;;;;;;18.20;11.93;;;;;;;22.27;100.00;101684.41;5056922;28;20044;-75
2023/08/12 00:49:15;;;;;;;14.48;10.90;;;;;;;22.29;100.00;101674.34;5085711;28;20479;-75
2023/08/12 00:51:44;;;;;;;15.43;10.90;;;;;;;22.35;100.00;101664.69;5074921;28;20067;-74
2023/08/12 00:54:14;;;;;;;16.38;11.98;;;;;;;22.39;100.00;101668.59;5079030;28;20128;-74
2023/08/12 00:56:41;;;;;;;16.75;11.65;;;;;;;22.34;100.00;101671.03;5072574;28;20056;-75
2023/08/12 00:59:09;;;;;;;16.73;11.90;;;;;;;22.29;100.00;101667.13;5080279;28;20379;-74
2023/08/12 01:01:39;;;;;;;;;;;;;;;22.27;100.00;101668.38;5055050;28;20083;-74
2023/08/12 01:04:05;;;;;;;16.92;11.52;;;;;;;22.25;100.00;101662.41;5064119;28;19924;-74
2023/08/12 01:06:33;;;;;;;18.05;11.07;;;;;;;22.26;100.00;101664.84;5066659;28;20063;-74
2023/08/12 01:09:00;;;;;;;12.37;9.70;;;;;;;22.29;100.00;101661.78;5073984;28;20078;-74
2023/08/12 01:11:54;;;;;;;18.52;12.75;;;;;;;22.30;100.00;101641.22;5083971;28;20051;-74
2023/08/12 01:14:33;;;;;;;22.05;12.52;;;;;;;22.30;100.00;101644.72;5048427;28;20052;-74
2023/08/12 01:17:03;;;;;;;19.05;12.73;;;;;;;22.28;100.00;101637.94;5081483;28;20101;-74
2023/08/12 01:19:36;;;;;;;17.73;12.98;;;;;;;22.28;100.00;101637.94;5074595;28;20170;-75
2023/08/12 01:22:06;;;;;;;20.02;13.98;;;;;;;22.26;100.00;101631.97;5083773;28;20101;-74
2023/08/12 01:24:40;;;;;;;20.75;14.15;;;;;;;22.24;100.00;101642.00;5084199;28;20084;-74
2023/08/12 01:27:09;;;;;;;18.67;13.10;;;;;;;22.19;100.00;101639.97;5073933;28;20407;-75
2023/08/12 01:29:42;;;;;;;16.67;11.10;;;;;;;22.21;100.00;101640.59;5076489;28;20048;-75
2023/08/12 01:32:18;;;;;;;18.02;12.15;;;;;;;22.21;100.00;101637.91;5074905;28;20454;-74
2023/08/12 01:34:53;;;;;;;19.95;15.13;;;;;;;22.21;100.00;101629.91;5079019;28;20055;-75
2023/08/12 01:37:29;;;;;;;20.58;14.77;;;;;;;22.19;100.00;101618.59;5075686;28;20048;-75
2023/08/12 01:39:58;;;;;;;20.00;14.30;;;;;;;22.12;100.00;101617.75;5081845;28;20334;-74
2023/08/12 01:42:25;;;;;;;23.38;15.38;;;;;;;22.13;100.00;101614.06;5069904;28;20480;-75
2023/08/12 01:44:52;;;;;;;19.60;13.53;;;;;;;22.13;100.00;101614.06;5066012;28;20540;-74
2023/08/12 01:47:18;;;;;;;20.98;14.90;;;;;;;22.15;100.00;101614.69;5066102;28;20109;-74
2023/08/12 01:49:45;;;;;;;21.73;15.40;;;;;;;22.17;100.00;101611.78;5074275;28;20063;-74
2023/08/12 01:52:12;;;;;;;22.15;16.00;;;;;;;22.09;100.00;101604.78;5064399;28;20127;-74
2023/08/12 01:54:38;;;;;;;21.90;15.98;;;;;;;22.05;100.00;101612.41;5052618;28;20055;-74
2023/08/12 01:57:05;;;;;;;25.90;16.52;;;;;;;21.94;100.00;101607.66;5078668;28;20457;-75
2023/08/12 01:59:32;;;;;;;24.88;15.60;;;;;;;21.97;100.00;101609.91;5075771;28;20058;-75
2023/08/12 02:01:59;;;;;;;20.90;16.45;;;;;;;21.94;100.00;101588.16;5085003;28;20106;-74
2023/08/12 02:04:26;;;;;;;19.42;13.23;;;;;;;21.99;100.00;101586.47;5065256;28;20052;-74
2023/08/12 02:06:54;;;;;;;18.92;15.02;;;;;;;22.02;100.00;101591.44;5078093;28;20063;-75
2023/08/12 02:09:21;;;;;;;21.17;13.65;;;;;;;22.04;100.00;101591.22;5080438;28;20364;-74
2023/08/12 02:11:48;;;;;;;25.20;17.23;;;;;;;22.02;100.00;101591.44;5069219;28;20083;-74
2023/08/12 02:14:15;;;;;;;23.97;18.80;;;;;;;22.01;100.00;101588.97;5066798;28;20062;-74
2023/08/12 02:16:41;;;;;;;24.27;17.40;;;;;;;21.96;100.00;101589.56;5076711;28;20048;-74
2023/08/12 02:19:08;;;;;;;25.55;17.20;;;;;;;21.85;100.00;101599.00;5082916;28;20450;-74
2023/08/12 02:21:34;;;;;;;26.33;18.73;;;;;;;21.86;100.00;101599.84;5080849;28;20083;-75
2023/08/12 02:24:01;;;;;;;25.23;17.00;;;;;;;21.86;100.00;101602.50;5076090;28;20063;-75
2023/08/12 02:26:27;;;;;;;25.38;19.33;;;;;;;21.86;100.00;101589.97;5061775;28;20493;-74
2023/08/12 02:28:54;;;;;;;14.63;12.13;;;;;;;21.92;100.00;101583.81;5078414;28;20055;-74
2023/08/12 02:31:21;;;;;;;21.23;17.65;;;;;;;21.92;100.00;101599.03;5066821;28;20079;-74
2023/08/12 02:33:49;;;;;;;27.08;19.48;;;;;;;21.88;100.00;101598.59;5040798;28;20041;-73
2023/08/12 02:36:16;;;;;;;;;;;;;;;21.87;100.00;101588.94;5066021;28;20052;-74
2023/08/12 02:38:42;;;;;;;22.27;17.77;;;;;;;21.89;100.00;101580.72;5043671;28;19932;-74
2023/08/12 02:41:09;;;;;;;22.88;17.95;;;;;;;21.85;100.00;101580.31;5075367;28;20501;-73
2023/08/12 02:43:36;;;;;;;26.02;19.70;;;;;;;21.80;100.00;101587.31;5085234;28;20533;-74
2023/08/12 02:46:02;;;;;;;25.38;20.20;;;;;;;21.77;100.00;101582.34;5076080;28;20501;-73
2023/08/12 02:48:29;;;;;;;26.20;20.50;;;;;;;21.70;100.00;101579.69;5082492;28;20477;-74
2023/08/12 02:50:55;;;;;;;25.55;21.17;;;;;;;21.65;100.00;101574.09;5076907;28;20044;-74
2023/08/12 02:53:22;;;;;;;30.70;21.38;;;;;;;21.70;100.00;101569.00;5078149;28;20056;-73
2023/08/12 02:55:48;;;;;;;25.85;21.10;;;;;;;21.69;100.00;101572.69;5063826;28;20048;-73
2023/08/12 02:58:15;;;;;;;28.35;21.30;;;;;;;21.62;100.00;101561.16;5061181;28;20055;-74
2023/08/12 03:00:45;;;;;;;26.42;19.98;;;;;;;21.70;100.00;101563.66;5084405;28;20539;-73
2023/08/12 03:03:11;;;;;;;24.77;20.58;;;;;;;21.70;100.00;101567.16;5078482;28;20618;-74
2023/08/12 03:05:38;;;;;;;27.20;20.83;;;;;;;21.68;100.00;101558.50;5061653;28;20671;-73
2023/08/12 03:08:05;;;;;;;27.63;22.48;;;;;;;21.67;100.00;101553.38;5080805;28;20455;-73
2023/08/12 03:10:34;;;;;;;24.55;20.02;;;;;;;21.68;100.00;101553.19;5076017;28;20083;-74
2023/08/12 03:13:00;;;;;;;26.63;20.33;;;;;;;21.70;100.00;101544.97;5067466;28;20407;-73
2023/08/12 03:15:27;;;;;;;26.58;19.60;;;;;;;21.76;100.00;101549.50;5076032;28;20173;-74
2023/08/12 03:17:54;;;;;;;29.73;21.27;;;;;;;21.77;100.00;101551.13;5084092;28;20044;-74
2023/08/12 03:20:20;;;;;;;26.45;20.92;;;;;;;21.69;100.00;101540.63;5073519;28;20076;-73
2023/08/12 03:22:47;;;;;;;25.63;20.33;;;;;;;21.75;100.00;101537.16;5080750;28;20083;-73
2023/08/12 03:25:15;;;;;;;27.17;20.30;;;;;;;21.73;100.00;101541.88;5066801;28;20504;-73
2023/08/12 03:27:41;;;;;;;;;;;;;;;21.71;100.00;101536.72;5078502;28;20058;-73
2023/08/12 03:30:08;;;;;;;28.05;21.15;;;;;;;21.66;100.00;101533.03;5064988;28;21078;-74
2023/08/12 03:32:35;;;;;;;30.70;21.63;;;;;;;21.59;100.00;101530.34;5076493;28;20043;-74
2023/08/12 03:35:02;;;;;;;28.83;20.80;;;;;;;21.59;100.00;101529.53;5059305;28;20071;-73
2023/08/12 03:37:28;;;;;;;29.30;20.90;;;;;;;21.59;100.00;101522.34;5074563;28;20113;-73
2023/08/12 03:39:55;;;;;;;27.50;21.70;;;;;;;21.56;100.00;101511.25;5081068;28;20412;-75
2023/08/12 03:42:22;;;;;;;27.42;21.10;;;;;;;21.59;100.00;101513.53;5066316;28;20074;-73
2023/08/12 03:44:48;;;;;;;24.10;18.13;;;;;;;21.63;100.00;101512.91;5074796;28;20116;-74
2023/08/12 03:47:15;;;;;;;24.48;20.58;;;;;;;21.65;100.00;101507.38;5082451;28;20052;-75
2023/08/12 03:49:41;;;;;;;22.25;17.25;;;;;;;21.63;100.00;101502.22;5070459;28;20075;-73
2023/08/12 03:52:08;;;;;;;26.92;19.42;;;;;;;21.62;100.00;101503.28;5084526;28;20054;-73
2023/08/12 03:54:34;;;;;;;24.45;19.02;;;;;;;21.66;100.00;101496.50;5058544;28;20062;-73
2023/08/12 03:57:01;;;;;;;24.58;16.88;;;;;;;21.69;100.00;101496.06;5080241;28;20048;-74
2023/08/12 03:59:27;;;;;;;27.42;20.13;;;;;;;21.71;100.00;101502.03;5084187;28;20105;-73
2023/08/12 04:01:54;;;;;;;23.35;19.08;;;;;;;21.69;100.00;101504.06;5052776;28;20686;-74
2023/08/12 04:04:21;;;;;;;25.67;20.05;;;;;;;21.72;100.00;101500.19;5076851;28;20131;-73
2023/08/12 04:06:51;;;;;;;24.15;17.85;;;;;;;21.74;100.00;101498.16;5077807;28;20101;-73
2023/08/12 04:09:18;;;;;;;27.42;18.05;;;;;;;21.70;100.00;101496.91;5083927;28;20080;-74
2023/08/12 04:11:45;;;;;;;21.93;18.17;;;;;;;21.71;100.00;101496.69;5057979;28;20462;-74
2023/08/12 04:14:13;;;;;;;28.10;21.50;;;;;;;21.66;100.00;101496.50;5082613;28;20048;-74
2023/08/12 04:16:40;;;;;;;28.17;20.83;;;;;;;21.66;100.00;101499.16;5079239;28;20823;-74
2023/08/12 04:19:06;;;;;;;28.05;19.33;;;;;;;21.72;100.00;101494.84;5054989;28;20055;-74
2023/08/12 04:21:33;;;;;;;27.23;19.92;;;;;;;21.76;100.00;101492.56;5063303;28;20048;-74
2023/08/12 04:23:59;;;;;;;28.20;20.08;;;;;;;21.72;100.00;101487.66;5075548;28;20044;-74
2023/08/12 04:26:26;;;;;;;28.70;19.15;;;;;;;21.79;100.00;101476.16;5082863;28;20489;-74
2023/08/12 04:28:52;;;;;;;25.65;20.17;;;;;;;21.82;100.00;101479.25;5065688;28;20048;-74
2023/08/12 04:31:19;;;;;;;22.20;17.02;;;;;;;21.87;100.00;101478.63;5071257;28;20978;-74
2023/08/12 04:33:45;;;;;;;23.88;18.17;;;;;;;21.84;100.00;101479.88;5061610;28;20563;-73
2023/08/12 04:36:12;;;;;;;27.10;19.08;;;;;;;21.85;100.00;101473.47;5075770;28;20109;-73
2023/08/12 04:38:39;;;;;;;23.85;17.77;;;;;;;21.84;100.00;101471.84;5082965;28;20040;-74
2023/08/12 04:41:05;;;;;;;24.27;18.40;;;;;;;21.82;100.00;101462.41;5075986;28;20530;-73
2023/08/12 04:43:32;;;;;;;22.98;16.77;;;;;;;21.78;100.00;101455.81;5065287;28;20051;-74
2023/08/12 04:45:59;;;;;;;24.38;19.13;;;;;;;21.84;100.00;101449.69;5057870;28;20049;-74
2023/08/12 04:48:25;;;;;;;20.75;15.57;;;;;;;21.87;100.00;101449.25;5057350;28;20420;-73
2023/08/12 04:50:52;;;;;;;22.38;17.70;;;;;;;21.88;100.00;101450.91;5081005;28;20072;-73
2023/08/12 04:53:19;;;;;;;23.40;16.38;;;;;;;21.88;100.00;101449.03;5075168;28;20052;-74
2023/08/12 04:55:49;;;;;;;22.50;18.10;;;;;;;21.89;100.00;101447.19;5063110;28;20087;-74
2023/08/12 04:58:17;;;;;;;23.92;17.23;;;;;;;21.84;100.00;101444.34;5073775;28;20048;-75
2023/08/12 05:00:43;;;;;;;25.17;17.90;;;;;;;21.91;100.00;101443.31;5075089;28;20277;-74
2023/08/12 05:03:10;;;;;;;27.25;19.38;;;;;;;21.93;100.00;101445.75;5084380;28;20039;-73
2023/08/12 05:05:36;;;;;;;19.73;15.77;;;;;;;21.92;100.00;101441.44;5075330;28;20055;-74
2023/08/12 05:08:03;;;;;;;18.52;12.85;;;;;;;21.97;100.00;101436.28;5084727;28;20055;-75
2023/08/12 05:10:30;;;;;;;25.15;20.00;;;;;;;21.94;100.00;101441.25;5073541;28;20079;-73
2023/08/12 05:12:58;;;;;;;22.85;17.40;;;;;;;21.88;100.00;101440.22;5077150;28;20791;-74
2023/08/12 05:15:24;;;;;;;25.20;19.35;;;;;;;21.85;100.00;101452.13;5075733;28;20059;-73
2023/08/12 05:17:51;;;;;;;27.02;20.30;;;;;;;21.78;100.00;101445.13;5081193;28;20515;-74
2023/08/12 05:20:18;;;;;;;23.00;17.50;;;;;;;21.77;100.00;101440.84;5082060;28;20048;-74
2023/08/12 05:22:45;;;;;;;24.40;19.73;;;;;;;21.71;100.00;101434.47;5053619;28;20059;-73
2023/08/12 05:25:11;;;;;;;24.42;18.05;;;;;;;21.81;100.00;101416.19;5060937;28;20152;-73
2023/08/12 05:27:38;;;;;;;23.85;19.27;;;;;;;21.81;100.00;101415.34;5054212;28;20474;-73
2023/08/12 05:30:06;;;;;;;17.48;13.25;;;;;;;21.85;100.00;101421.94;5080076;28;20041;-73
2023/08/12 05:32:32;;;;;;;18.23;14.10;;;;;;;21.84;100.00;101410.44;5082128;28;20105;-73
2023/08/12 05:34:59;;;;;;;27.50;18.20;;;;;;;21.83;100.00;101416.78;5072644;28;20055;-73
2023/08/12 05:37:25;;;;;;;20.50;17.33;;;;;;;21.80;100.00;101419.06;5063470;28;20051;-73
2023/08/12 05:39:52;;;;;;;27.20;19.02;;;;;;;21.76;100.00;101426.66;5069714;28;21125;-73
2023/08/12 05:42:19;;;;;;;20.63;16.13;;;;;;;21.69;100.00;101429.31;5056947;28;20090;-72
2023/08/12 05:44:45;;;;;;;27.67;19.02;;;;;;;21.70;100.00;101435.50;5074946;28;20066;-73
2023/08/12 05:47:12;;;;;;;22.15;17.80;;;;;;;21.64;100.00;101431.81;5064052;28;20125;-73
2023/08/12 05:49:38;;;;;;;23.95;16.42;;;;;;;21.56;100.00;101423.16;5081680;28;20044;-73
2023/08/12 05:52:05;;;;;;;24.52;16.92;;;;;;;21.53;100.00;101414.53;5056981;28;20084;-73
2023/08/12 05:54:31;;;;;;;24.90;17.63;;;;;;;21.44;100.00;101430.94;5074158;28;20055;-72
2023/08/12 05:56:59;;;;;;;22.23;15.88;;;;;;;21.33;100.00;101433.16;5073612;28;20060;-72
2023/08/12 05:59:26;;;;;;;20.27;14.80;;;;;;;21.24;100.00;101433.56;5068769;28;20488;-70
2023/08/12 06:01:53;;;;;;;19.05;13.63;;;;;;;21.10;100.00;101422.03;5067536;28;20105;-70
2023/08/12 06:04:20;;;;;;;20.60;13.95;;;;;;;21.06;100.00;101426.94;5076295;28;20052;-70
2023/08/12 06:06:46;;;;;;;21.17;12.35;;;;;;;21.01;100.00;101425.91;5065504;28;20140;-71
2023/08/12 06:09:13;;;;;;;17.55;11.85;;;;;;;21.01;100.00;101432.09;5072021;28;20459;-71
2023/08/12 06:11:39;;;;;;;17.38;12.20;;;;;;;20.99;100.00;101420.75;5084231;28;20540;-72
2023/08/12 06:14:06;;;;;;;22.35;12.15;;;;;;;20.99;100.00;101414.63;5060235;28;20564;-72
2023/08/12 06:16:33;;;;;;;17.75;11.75;;;;;;;20.96;100.00;101409.72;5082588;28;20158;-72
2023/08/12 06:18:59;;;;;;;17.35;11.75;;;;;;;20.87;100.00;101423.19;5067841;28;20315;-71
2023/08/12 06:21:26;;;;;;;15.15;10.77;;;;;;;20.74;100.00;101420.50;5073953;28;20128;-71
2023/08/12 06:23:53;;;;;;;13.57;8.90;;;;;;;20.79;100.00;101419.91;5079228;28;20505;-70
2023/08/12 06:26:19;;;;;;;18.42;11.15;;;;;;;20.70;100.00;101420.06;5076801;28;20050;-71
2023/08/12 06:28:46;;;;;;;15.27;10.52;;;;;;;20.68;100.00;101418.59;5085052;28;20497;-70
2023/08/12 06:31:12;;;;;;;15.10;9.25;;;;;;;20.56;100.00;101426.31;5076612;28;20052;-70
2023/08/12 06:33:39;;;;;;;14.23;8.13;;;;;;;20.48;100.00;101419.34;5064384;28;20044;-70
2023/08/12 06:36:06;;;;;;;11.75;6.75;;;;;;;20.48;100.00;101419.34;5079054;28;20256;-70
2023/08/12 06:38:32;;;;;;;11.52;5.88;;;;;;;20.39;100.00;101409.84;5072584;28;20117;-70
2023/08/12 06:40:59;;;;;;;11.10;5.13;;;;;;;20.44;100.00;101415.41;5084404;28;20136;-70
2023/08/12 06:43:25;;;;;;;7.82;4.97;;;;;;;20.33;100.00;101414.13;5061829;28;20048;-70
2023/08/12 06:45:55;;;;;;;13.15;5.90;;;;;;;20.32;100.00;101414.31;5080946;28;20051;-70
2023/08/12 06:48:22;;;;;;;11.60;5.07;;;;;;;20.28;100.00;101411.22;5080632;28;20048;-71
2023/08/12 06:50:55;;;;;;;8.10;5.10;;;;;;;20.38;100.00;101399.38;5074290;28;20531;-71
2023/08/12 06:53:22;;;;;;;9.43;5.50;;;;;;;20.35;100.00;101398.75;5079906;28;20067;-69
2023/08/12 06:55:49;;;;;;;11.35;5.75;;;;;;;20.39;100.00;101398.38;5058351;28;20058;-70
2023/08/12 06:58:15;;;;;;;10.10;5.97;;;;;;;20.42;100.00;101390.78;5066907;28;20062;-71
2023/08/12 07:00:42;;;;;;;10.00;5.85;;;;;;;20.47;100.00;101399.03;5076346;28;21606;-71
2023/08/12 07:03:09;;;;;;;10.35;5.65;;;;;;;20.58;100.00;101396.81;5077977;28;20485;-71
2023/08/12 07:05:35;;;;;;;11.93;6.50;;;;;;;20.64;100.00;101396.88;5073304;28;20126;-70
2023/08/12 07:08:02;;;;;;;9.30;5.93;;;;;;;20.65;100.00;101392.38;5081832;28;21200;-71
2023/08/12 07:10:28;;;;;;;10.70;6.38;;;;;;;20.66;100.00;101392.19;5083849;28;20407;-71
2023/08/12 07:12:55;;;;;;;10.68;7.00;;;;;;;20.79;100.00;101390.56;5081337;28;20423;-71
2023/08/12 07:15:22;;;;;;;10.98;6.57;;;;;;;20.88;100.00;101382.19;5079236;28;20745;-71
2023/08/12 07:17:48;;;;;;;8.25;6.18;;;;;;;20.98;100.00;101386.31;5073418;28;20051;-73
2023/08/12 07:20:15;;;;;;;10.30;6.50;;;;;;;21.01;100.00;101386.75;5064061;28;20052;-72
2023/08/12 07:22:41;;;;;;;9.90;6.28;;;;;;;21.06;100.00;101378.94;5066025;28;20082;-72
2023/08/12 07:25:09;;;;;;;8.43;5.82;;;;;;;21.10;100.00;101372.19;5075292;28;20352;-72
2023/08/12 07:27:35;;;;;;;9.98;6.60;;;;;;;21.10;100.00;101374.84;5064579;28;20055;-72
2023/08/12 07:30:02;;;;;;;10.65;7.53;;;;;;;21.12;100.00;101369.31;5078108;28;20044;-72
2023/08/12 07:32:29;;;;;;;11.63;7.17;;;;;;;21.06;100.00;101362.94;5079955;28;20135;-71
2023/08/12 07:34:57;;;;;;;12.15;7.45;;;;;;;21.09;100.00;101367.88;5073968;28;20152;-72
2023/08/12 07:37:24;;;;;;;12.05;7.05;;;;;;;21.14;100.00;101365.41;5067944;28;20536;-73
2023/08/12 07:39:51;;;;;;;13.75;8.07;;;;;;;21.18;100.00;101365.81;5066540;28;20048;-72
2023/08/12 07:42:17;;;;;;;10.00;7.13;;;;;;;21.21;100.00;101362.78;5062517;28;20499;-71
2023/08/12 07:44:44;;;;;;;11.32;7.50;;;;;;;21.19;100.00;101353.31;5065847;28;20055;-71
2023/08/12 07:47:10;;;;;;;8.75;6.32;;;;;;;21.22;100.00;101345.72;5073540;28;20087;-71
2023/08/12 07:49:38;;;;;;;7.95;5.90;;;;;;;21.20;100.00;101344.28;5067255;28;20074;-71
2023/08/12 07:52:05;;;;;;;7.18;5.38;;;;;;;21.21;100.00;101346.75;5067680;28;20052;-71
2023/08/12 07:54:31;;;;;;;8.68;4.60;;;;;;;21.24;100.00;101348.19;5074038;28;20052;-72
2023/08/12 07:56:58;;;;;;;6.85;5.03;;;;;;;21.14;100.00;101341.41;5087953;28;20070;-71
2023/08/12 07:59:25;;;;;;;6.40;4.57;;;;;;;21.06;100.00;101336.28;5097784;28;20273;-72
2023/08/12 08:01:52;;;;;;;7.47;4.38;;;;;;;21.06;100.00;101344.28;5099452;28;20036;-72
2023/08/12 08:04:18;;;;;;;5.60;3.60;;;;;;;21.08;100.00;101341.41;5078398;28;20060;-72
2023/08/12 08:06:45;;;;;;;6.50;4.13;;;;;;;21.01;100.00;101340.56;5089730;28;20052;-72
2023/08/12 08:09:13;;;;;;;6.03;3.70;;;;;;;20.99;100.00;101338.09;5087415;28;20048;-71
2023/08/12 08:11:40;;;;;;;6.25;3.95;;;;;;;20.90;100.00;101332.16;5080934;28;20140;-71
2023/08/12 08:14:06;;;;;;;5.75;3.47;;;;;;;21.00;100.00;101330.94;5063540;28;20712;-71
2023/08/12 08:16:33;;;;;;;5.32;3.40;;;;;;;20.97;100.00;101326.00;5057053;28;20061;-72
2023/08/12 08:19:00;;;;;;;4.60;2.97;;;;;;;20.92;100.00;101337.28;5085601;28;20063;-71
2023/08/12 08:21:27;;;;;;;7.10;3.55;;;;;;;20.90;100.00;101331.34;5078314;28;20119;-71
2023/08/12 08:23:53;;;;;;;9.88;3.20;;;;;;;20.99;100.00;101326.63;5065027;28;20048;-71
2023/08/12 08:26:20;;;;;;;5.38;3.47;;;;;;;20.97;100.00;101326.00;5081895;28;20052;-72
2023/08/12 08:28:46;;;;;;;5.53;3.75;;;;;;;20.94;100.00;101325.38;5071130;28;20052;-72
2023/08/12 08:31:13;;;;;;;5.47;3.75;;;;;;;21.03;100.00;101322.50;5075975;28;20062;-72
2023/08/12 08:33:40;;;;;;;3.80;3.00;;;;;;;21.02;100.00;101313.69;5075896;28;20132;-72
2023/08/12 08:36:10;;;;;;;5.85;3.30;;;;;;;20.99;100.00;101319.44;5082202;28;20129;-72
2023/08/12 08:38:36;;;;;;;4.88;3.33;;;;;;;20.92;100.00;101324.75;5060358;28;20101;-72
2023/08/12 08:41:05;;;;;;;4.22;3.10;;;;;;;20.88;100.00;101318.19;5079894;28;20352;-72
2023/08/12 08:43:35;;;;;;;3.83;3.03;;;;;;;20.78;100.00;101331.09;5060032;28;20591;-72
2023/08/12 08:46:02;;;;;;;6.38;3.03;;;;;;;20.73;100.00;101333.53;5071238;28;21878;-72
2023/08/12 08:48:29;;;;;;;4.60;3.17;;;;;;;20.72;100.00;101331.91;5083314;28;20581;-72
2023/08/12 08:50:57;;;;;;;6.63;3.33;;;;;;;20.75;100.00;101336.81;5074063;28;20048;-72
2023/08/12 08:53:23;;;;;;;4.45;3.35;;;;;;;20.72;100.00;101331.91;5081796;28;20052;-73
2023/08/12 08:55:52;;;;;;;4.60;3.67;;;;;;;20.68;100.00;101343.97;5078063;28;20179;-73
2023/08/12 08:58:27;;;;;;;5.37;3.50;;;;;;;20.62;100.00;101344.78;5076891;28;20056;-72
2023/08/12 09:00:54;;;;;;;6.13;3.65;;;;;;;20.71;100.00;101336.41;5061843;28;20044;-72
2023/08/12 09:03:21;;;;;;;5.22;3.90;;;;;;;20.70;100.00;101340.09;5055922;28;20044;-73
2023/08/12 09:05:50;;;;;;;3.65;3.25;;;;;;;20.74;100.00;101335.19;5082665;28;20408;-73
2023/08/12 09:08:17;;;;;;;4.05;3.08;;;;;;;20.72;100.00;101340.72;5058328;28;20074;-73
2023/08/12 09:10:46;;;;;;;3.97;2.78;;;;;;;20.71;100.00;101346.25;5079697;28;20040;-73
2023/08/12 09:13:13;;;;;;;4.38;3.42;;;;;;;20.67;100.00;101347.69;5076745;28;20044;-73
2023/08/12 09:15:39;;;;;;;4.50;3.77;;;;;;;20.60;100.00;101354.81;5075762;28;20112;-73
2023/08/12 09:18:06;;;;;;;3.28;2.97;;;;;;;20.64;100.00;101351.56;5082805;28;20933;-73
2023/08/12 09:20:34;;;;;;;6.10;3.20;;;;;;;20.75;100.00;101350.16;5073716;28;20564;-73
2023/08/12 09:23:02;;;;;;;3.42;3.13;;;;;;;20.67;100.00;101353.81;5080891;28;20040;-73
2023/08/12 09:25:29;;;;;;;4.05;3.40;;;;;;;20.73;100.00;101360.19;5070815;28;20051;-73
2023/08/12 09:27:59;;;;;;;4.17;3.40;;;;;;;20.78;100.00;101360.44;5076268;28;20058;-73
2023/08/12 09:30:29;;;;;;;3.50;3.20;;;;;;;20.73;100.00;101361.00;5065242;28;20044;-72
2023/08/12 09:33:05;;;;;;;3.40;3.10;;;;;;;20.80;100.00;101368.22;5078862;28;20047;-72
2023/08/12 09:35:39;;;;;;;3.25;2.72;;;;;;;20.89;100.00;101369.66;5086335;28;20056;-72
2023/08/12 09:38:13;;;;;;;2.85;2.55;;;;;;;21.05;100.00;101374.66;5079679;28;20629;-71
2023/08/12 09:40:39;;;;;;;2.60;2.08;;;;;;;21.16;100.00;101369.75;5061516;28;20048;-72
2023/08/12 09:43:06;;;;;;;2.15;1.60;;;;;;;21.16;100.00;101388.41;5057565;28;20060;-72
2023/08/12 09:45:34;;;;;;;1.77;1.42;;;;;;;21.25;100.00;101380.00;5086174;28;20050;-72
2023/08/12 09:48:01;;;;;;;1.33;1.23;;;;;;;21.33;100.00;101379.81;5066524;28;20485;-72
2023/08/12 09:50:28;;;;;;;1.83;1.52;;;;;;;21.53;100.00;101374.50;5061054;28;20079;-72
2023/08/12 09:52:55;;;;;;;2.35;1.20;;;;;;;21.64;100.00;101377.56;5083704;28;20054;-72
2023/08/12 09:55:24;;;;;;;1.40;1.30;;;;;;;21.60;100.00;101368.34;5054029;28;20804;-72
2023/08/12 09:57:52;;;;;;;2.45;1.25;;;;;;;21.55;100.00;101368.97;5061774;28;20139;-72
2023/08/12 10:00:20;;;;;;;2.90;1.40;;;;;;;21.59;100.00;101374.72;5080954;28;20080;-73
2023/08/12 10:02:51;;;;;;;1.65;1.25;;;;;;;21.41;100.00;101386.78;5068195;28;20052;-73
2023/08/12 10:05:28;;;;;;;1.83;1.00;;;;;;;21.35;100.00;101386.81;5083681;28;20044;-73
2023/08/12 10:07:55;;;;;;;1.30;1.20;;;;;;;21.30;100.00;101384.72;5064284;28;20480;-73
2023/08/12 10:10:25;;;;;;;1.13;1.03;;;;;;;21.41;100.00;101377.97;5081763;28;21001;-73
2023/08/12 10:12:51;;;;;;;3.33;1.52;;;;;;;21.53;100.00;101373.69;5077971;28;20047;-73
2023/08/12 10:15:19;;;;;;;1.77;1.20;;;;;;;21.65;100.00;101376.56;5081968;28;20148;-72
2023/08/12 10:17:47;;;;;;;1.58;1.48;;;;;;;21.89;100.00;101361.72;5060296;28;20714;-73
2023/08/12 10:20:19;;;;;;;2.97;1.42;;;;;;;22.03;100.00;101362.53;5082822;28;20056;-73
2023/08/12 10:22:46;;;;;;;2.10;1.67;;;;;;;22.06;100.00;101372.81;5079399;28;20051;-73
2023/08/12 10:25:14;;;;;;;1.40;1.30;;;;;;;22.24;100.00;101377.47;5077359;28;20459;-73
2023/08/12 10:27:41;;;;;;;2.35;1.38;;;;;;;22.37;100.00;101393.50;5067211;28;20489;-72
2023/08/12 10:30:09;;;;;;;2.03;1.42;;;;;;;22.16;100.00;101397.22;5079011;28;20108;-73
2023/08/12 10:32:36;;;;;;;1.40;1.30;;;;;;;22.01;100.00;101399.31;5085881;28;20075;-73
2023/08/12 10:35:03;;;;;;;2.40;1.50;;;;;;;21.88;100.00;101395.63;5060874;28;20075;-72
2023/08/12 10:37:33;;;;;;;4.18;1.45;;;;;;;21.84;100.00;101406.94;5085902;28;20687;-72
2023/08/12 10:40:12;;;;;;;2.60;1.75;;;;;;;22.03;100.00;101411.44;5084793;28;20051;-73
2023/08/12 10:42:49;;;;;;;2.95;1.80;;;;;;;22.22;100.00;101423.09;5077709;28;20079;-72
2023/08/12 10:45:17;;;;;;;4.30;1.80;;;;;;;22.14;100.00;101420.66;5084449;28;20056;-72
2023/08/12 10:48:13;;;;;;;;;;;;;;;22.23;100.00;101418.59;5074849;28;20052;-72
2023/08/12 10:50:45;;;;;;;3.60;2.50;;;;;;;22.10;100.00;101406.09;5067382;28;20019;-72
2023/08/12 10:53:29;;;;;;;4.35;2.50;;;;;;;22.05;100.00;101409.38;5078831;28;20121;-72
2023/08/12 10:56:01;;;;;;;3.88;2.30;;;;;;;22.09;100.00;101402.59;5067389;28;20113;-72
2023/08/12 10:58:40;;;;;;;3.42;2.05;;;;;;;22.04;100.00;101407.72;5077874;28;20523;-73
2023/08/12 11:01:13;;;;;;;4.97;2.30;;;;;;;21.94;100.00;101411.88;5080416;28;21323;-73
2023/08/12 11:03:42;;;;;;;3.90;2.00;;;;;;;21.87;100.00;101399.31;5076072;28;20059;-72
2023/08/12 11:06:12;;;;;;;4.43;1.80;;;;;;;21.99;100.00;101407.53;5082222;28;20071;-72
2023/08/12 11:09:10;;;;;;;7.97;2.05;;;;;;;22.22;100.00;101415.09;5083125;28;20400;-73
2023/08/12 11:11:36;;;;;;;;;;;;;;;22.26;100.00;101420.88;5052402;28;20147;-73